createdAt,value
2018-04-01T00:00:08.203Z,0
2018-04-01T00:01:08.595Z,0
2018-04-01T00:02:08.028Z,0
2018-04-01T00:03:08.184Z,0
2018-04-01T00:04:08.012Z,0
2018-04-01T00:05:08.144Z,0
2018-04-01T00:06:08.184Z,0
2018-04-01T00:07:08.441Z,0
2018-04-01T00:08:08.046Z,0
2018-04-01T00:09:08.343Z,0
2018-04-01T00:10:08.242Z,0
2018-04-01T00:11:08.277Z,0
2018-04-01T00:12:08.037Z,0
2018-04-01T00:13:07.662Z,0
2018-04-01T00:14:08.353Z,0
2018-04-01T00:15:08.237Z,0
2018-04-01T00:16:07.612Z,0
2018-04-01T00:17:07.937Z,0
2018-04-01T00:18:07.900Z,0
2018-04-01T00:19:08.146Z,0
2018-04-01T00:20:07.600Z,0
2018-04-01T00:21:07.748Z,0
2018-04-01T00:22:07.497Z,0
2018-04-01T00:23:07.740Z,0
2018-04-01T00:24:07.964Z,0
2018-04-01T00:25:07.745Z,0
2018-04-01T00:26:07.388Z,0
2018-04-01T00:27:07.464Z,0
2018-04-01T00:28:07.078Z,0
2018-04-01T00:29:08.143Z,0
2018-04-01T00:30:07.632Z,0
2018-04-01T00:31:07.981Z,0
2018-04-01T00:32:07.816Z,0
2018-04-01T00:33:07.661Z,0
2018-04-01T00:34:07.558Z,0
2018-04-01T00:35:07.587Z,0
2018-04-01T00:36:07.804Z,0
2018-04-01T00:37:07.245Z,0
2018-04-01T00:38:07.555Z,0
2018-04-01T00:39:07.487Z,0
2018-04-01T00:40:06.910Z,0
2018-04-01T00:41:07.784Z,0
2018-04-01T00:42:07.417Z,0
2018-04-01T00:43:07.386Z,0
2018-04-01T00:44:07.435Z,0
2018-04-01T00:45:07.376Z,0
2018-04-01T00:46:07.066Z,0
2018-04-01T00:47:07.657Z,0
2018-04-01T00:48:07.327Z,0
2018-04-01T00:49:07.590Z,0
2018-04-01T00:50:06.810Z,0
2018-04-01T00:51:07.232Z,0
2018-04-01T00:52:07.577Z,0
2018-04-01T00:53:07.320Z,0
2018-04-01T00:54:06.666Z,0
2018-04-01T00:55:07.012Z,0
2018-04-01T00:56:07.395Z,0
2018-04-01T00:57:07.664Z,0
2018-04-01T00:58:07.233Z,0
2018-04-01T00:59:07.219Z,0
2018-04-01T01:00:06.936Z,0
2018-04-01T01:01:06.643Z,0
2018-04-01T01:02:07.154Z,0
2018-04-01T01:03:06.879Z,0
2018-04-01T01:04:06.597Z,0
2018-04-01T01:05:06.592Z,0
2018-04-01T01:06:07.082Z,0
2018-04-01T01:07:07.074Z,0
2018-04-01T01:08:06.517Z,0
2018-04-01T01:09:07.022Z,0
2018-04-01T01:10:06.212Z,0
2018-04-01T01:11:06.772Z,0
2018-04-01T01:12:06.707Z,0
2018-04-01T01:13:06.422Z,0
2018-04-01T01:14:06.404Z,0
2018-04-01T01:15:06.917Z,0
2018-04-01T01:16:06.364Z,0
2018-04-01T01:17:06.611Z,0
2018-04-01T01:18:06.416Z,0
2018-04-01T01:19:06.580Z,0
2018-04-01T01:20:06.291Z,0
2018-04-01T01:21:06.012Z,0
2018-04-01T01:22:06.514Z,0
2018-04-01T01:23:06.767Z,0
2018-04-01T01:24:06.214Z,0
2018-04-01T01:25:05.929Z,0
2018-04-01T01:26:06.442Z,0
2018-04-01T01:27:06.689Z,0
2018-04-01T01:28:06.139Z,0
2018-04-01T01:29:05.852Z,0
2018-04-01T01:30:06.109Z,0
2018-04-01T01:31:06.355Z,0
2018-04-01T01:32:06.071Z,0
2018-04-01T01:33:06.046Z,0
2018-04-01T01:34:06.039Z,0
2018-04-01T01:35:06.279Z,0
2018-04-01T01:36:06.137Z,0
2018-04-01T01:37:05.983Z,0
2018-04-01T01:38:06.224Z,0
2018-04-01T01:39:06.204Z,0
2018-04-01T01:40:06.189Z,0
2018-04-01T01:41:06.171Z,0
2018-04-01T01:42:06.143Z,0
2018-04-01T01:43:05.860Z,0
2018-04-01T01:44:06.371Z,0
2018-04-01T01:45:06.084Z,0
2018-04-01T01:46:06.066Z,0
2018-04-01T01:47:05.788Z,0
2018-04-01T01:48:05.764Z,0
2018-04-01T01:49:06.011Z,0
2018-04-01T01:50:05.752Z,0
2018-04-01T01:51:06.235Z,0
2018-04-01T01:52:05.694Z,0
2018-04-01T01:53:05.686Z,0
2018-04-01T01:54:05.924Z,0
2018-04-01T01:55:05.638Z,0
2018-04-01T01:56:05.880Z,0
2018-04-01T01:57:06.135Z,0
2018-04-01T01:58:05.579Z,0
2018-04-01T01:59:06.101Z,0
2018-04-01T02:00:05.540Z,0
2018-04-01T02:01:05.783Z,0
2018-04-01T02:02:05.502Z,0
2018-04-01T02:03:05.754Z,0
2018-04-01T02:04:05.750Z,0
2018-04-01T02:05:05.713Z,0
2018-04-01T02:06:05.690Z,0
2018-04-01T02:07:05.681Z,0
2018-04-01T02:08:05.123Z,0
2018-04-01T02:09:05.641Z,0
2018-04-01T02:10:05.286Z,0
2018-04-01T02:11:05.334Z,0
2018-04-01T02:12:05.632Z,0
2018-04-01T02:13:05.292Z,0
2018-04-01T02:14:05.809Z,0
2018-04-01T02:15:05.796Z,0
2018-04-01T02:16:05.774Z,0
2018-04-01T02:17:05.492Z,0
2018-04-01T02:18:05.462Z,0
2018-04-01T02:19:05.446Z,0
2018-04-01T02:20:05.428Z,0
2018-04-01T02:21:04.880Z,0
2018-04-01T02:22:05.679Z,0
2018-04-01T02:23:05.113Z,0
2018-04-01T02:24:05.629Z,0
2018-04-01T02:25:05.369Z,0
2018-04-01T02:26:04.794Z,0
2018-04-01T02:27:05.297Z,0
2018-04-01T02:28:05.015Z,0
2018-04-01T02:29:04.999Z,0
2018-04-01T02:30:04.706Z,0
2018-04-01T02:31:04.961Z,0
2018-04-01T02:32:05.207Z,0
2018-04-01T02:33:05.466Z,0
2018-04-01T02:34:05.164Z,0
2018-04-01T02:35:05.168Z,0
2018-04-01T02:36:05.142Z,0
2018-04-01T02:37:04.838Z,0
2018-04-01T02:38:05.097Z,0
2018-04-01T02:39:04.812Z,0
2018-04-01T02:40:05.326Z,0
2018-04-01T02:41:04.779Z,0
2018-04-01T02:42:05.033Z,0
2018-04-01T02:43:05.013Z,0
2018-04-01T02:44:04.976Z,0
2018-04-01T02:45:04.956Z,0
2018-04-01T02:46:04.411Z,0
2018-04-01T02:47:04.652Z,0
2018-04-01T02:48:04.902Z,0
2018-04-01T02:49:04.888Z,0
2018-04-01T02:50:04.871Z,0
2018-04-01T02:51:04.875Z,0
2018-04-01T02:52:04.850Z,0
2018-04-01T02:53:04.544Z,0
2018-04-01T02:54:04.258Z,0
2018-04-01T02:55:04.773Z,0
2018-04-01T02:56:04.773Z,0
2018-04-01T02:57:04.199Z,0
2018-04-01T02:58:05.013Z,0
2018-04-01T02:59:04.430Z,0
2018-04-01T03:00:04.699Z,0
2018-04-01T03:01:04.929Z,0
2018-04-01T03:02:04.923Z,0
2018-04-01T03:03:04.636Z,0
2018-04-01T03:04:04.891Z,0
2018-04-01T03:05:04.322Z,0
2018-04-01T03:06:04.577Z,0
2018-04-01T03:07:04.586Z,0
2018-04-01T03:08:04.549Z,0
2018-04-01T03:09:04.780Z,0
2018-04-01T03:10:04.781Z,0
2018-04-01T03:11:04.597Z,0
2018-04-01T03:12:04.188Z,0
2018-04-01T03:13:04.438Z,0
2018-04-01T03:14:04.410Z,0
2018-04-01T03:15:03.862Z,0
2018-04-01T03:16:03.849Z,0
2018-04-01T03:17:04.626Z,0
2018-04-01T03:18:04.142Z,0
2018-04-01T03:19:04.072Z,0
2018-04-01T03:20:04.306Z,0
2018-04-01T03:21:04.286Z,0
2018-04-01T03:22:04.265Z,0
2018-04-01T03:23:03.980Z,0
2018-04-01T03:24:04.236Z,0
2018-04-01T03:25:04.488Z,0
2018-04-01T03:26:03.931Z,0
2018-04-01T03:27:03.910Z,0
2018-04-01T03:28:03.891Z,0
2018-04-01T03:29:04.142Z,0
2018-04-01T03:30:04.140Z,0
2018-04-01T03:31:04.380Z,0
2018-04-01T03:32:04.084Z,0
2018-04-01T03:33:04.073Z,0
2018-04-01T03:34:03.508Z,0
2018-04-01T03:35:03.498Z,0
2018-04-01T03:36:04.013Z,0
2018-04-01T03:37:03.990Z,0
2018-04-01T03:38:04.232Z,0
2018-04-01T03:39:03.950Z,0
2018-04-01T03:40:04.198Z,0
2018-04-01T03:41:03.920Z,0
2018-04-01T03:42:04.177Z,0
2018-04-01T03:43:03.641Z,0
2018-04-01T03:44:03.592Z,0
2018-04-01T03:45:04.099Z,0
2018-04-01T03:46:04.106Z,0
2018-04-01T03:47:03.535Z,0
2018-04-01T03:48:03.785Z,0
2018-04-01T03:49:03.495Z,0
2018-04-01T03:50:04.064Z,0
2018-04-01T03:51:03.997Z,0
2018-04-01T03:52:03.439Z,0
2018-04-01T03:53:03.704Z,0
2018-04-01T03:54:03.935Z,0
2018-04-01T03:55:03.657Z,0
2018-04-01T03:56:03.623Z,0
2018-04-01T03:57:03.607Z,0
2018-04-01T03:58:03.592Z,0
2018-04-01T03:59:03.577Z,0
2018-04-01T04:00:03.560Z,0
2018-04-01T04:01:03.795Z,0
2018-04-01T04:02:03.512Z,0
2018-04-01T04:03:03.489Z,0
2018-04-01T04:04:03.211Z,0
2018-04-01T04:05:03.449Z,0
2018-04-01T04:06:03.172Z,0
2018-04-01T04:07:02.883Z,0
2018-04-01T04:08:03.664Z,0
2018-04-01T04:09:03.661Z,0
2018-04-01T04:10:03.563Z,0
2018-04-01T04:11:03.333Z,0
2018-04-01T04:12:03.587Z,0
2018-04-01T04:13:03.306Z,0
2018-04-01T04:14:03.016Z,0
2018-04-01T04:15:03.266Z,0
2018-04-01T04:16:03.514Z,0
2018-04-01T04:17:02.962Z,0
2018-04-01T04:18:02.938Z,0
2018-04-01T04:19:03.458Z,0
2018-04-01T04:20:02.917Z,0
2018-04-01T04:21:03.164Z,0
2018-04-01T04:22:03.135Z,0
2018-04-01T04:23:03.377Z,0
2018-04-01T04:24:03.359Z,0
2018-04-01T04:25:02.803Z,0
2018-04-01T04:26:03.071Z,0
2018-04-01T04:27:03.310Z,0
2018-04-01T04:28:02.749Z,0
2018-04-01T04:29:03.268Z,0
2018-04-01T04:30:03.249Z,0
2018-04-01T04:31:03.059Z,0
2018-04-01T04:32:02.960Z,0
2018-04-01T04:33:02.664Z,0
2018-04-01T04:34:02.421Z,0
2018-04-01T04:35:03.215Z,0
2018-04-01T04:36:03.121Z,0
2018-04-01T04:37:02.586Z,0
2018-04-01T04:38:02.824Z,0
2018-04-01T04:39:03.081Z,0
2018-04-01T04:40:03.044Z,4
2018-04-01T04:41:02.497Z,0
2018-04-01T04:42:02.818Z,4
2018-04-01T04:43:02.875Z,4
2018-04-01T04:44:02.982Z,4
2018-04-01T04:45:02.534Z,4
2018-04-01T04:46:02.406Z,8
2018-04-01T04:47:02.665Z,8
2018-04-01T04:48:02.368Z,12
2018-04-01T04:49:02.886Z,8
2018-04-01T04:50:02.066Z,12
2018-04-01T04:51:02.048Z,16
2018-04-01T04:52:02.026Z,20
2018-04-01T04:53:02.275Z,24
2018-04-01T04:54:02.269Z,24
2018-04-01T04:55:01.963Z,28
2018-04-01T04:56:02.209Z,28
2018-04-01T04:57:02.862Z,32
2018-04-01T04:58:02.726Z,32
2018-04-01T04:59:02.191Z,40
2018-04-01T05:00:02.230Z,44
2018-04-01T05:01:02.394Z,48
2018-04-01T05:02:02.665Z,48
2018-04-01T05:03:02.453Z,52
2018-04-01T05:04:02.393Z,60
2018-04-01T05:05:02.650Z,64
2018-04-01T05:06:02.394Z,72
2018-04-01T05:07:02.313Z,84
2018-04-01T05:08:02.523Z,92
2018-04-01T05:09:02.404Z,104
2018-04-01T05:10:02.512Z,124
2018-04-01T05:11:02.791Z,140
2018-04-01T05:12:02.223Z,164
2018-04-01T05:13:02.242Z,176
2018-04-01T05:14:01.950Z,192
2018-04-01T05:15:02.441Z,228
2018-04-01T05:16:02.192Z,216
2018-04-01T05:17:01.932Z,212
2018-04-01T05:18:01.912Z,216
2018-04-01T05:19:02.046Z,244
2018-04-01T05:20:01.641Z,272
2018-04-01T05:21:02.037Z,324
2018-04-01T05:22:02.278Z,384
2018-04-01T05:23:01.778Z,408
2018-04-01T05:24:02.247Z,392
2018-04-01T05:25:02.161Z,284
2018-04-01T05:26:02.230Z,240
2018-04-01T05:27:01.923Z,264
2018-04-01T05:28:01.645Z,272
2018-04-01T05:29:01.902Z,260
2018-04-01T05:30:01.835Z,268
2018-04-01T05:31:02.140Z,272
2018-04-01T05:32:02.082Z,268
2018-04-01T05:33:02.090Z,268
2018-04-01T05:34:02.023Z,328
2018-04-01T05:35:01.735Z,364
2018-04-01T05:36:01.749Z,320
2018-04-01T05:37:01.969Z,380
2018-04-01T05:38:01.953Z,556
2018-04-01T05:39:01.658Z,692
2018-04-01T05:40:01.419Z,792
2018-04-01T05:41:01.642Z,772
2018-04-01T05:42:01.601Z,700
2018-04-01T05:43:01.869Z,772
2018-04-01T05:44:01.846Z,796
2018-04-01T05:45:01.022Z,636
2018-04-01T05:46:01.527Z,528
2018-04-01T05:47:01.559Z,540
2018-04-01T05:48:01.507Z,656
2018-04-01T05:49:01.725Z,724
2018-04-01T05:50:01.442Z,720
2018-04-01T05:51:01.514Z,724
2018-04-01T05:52:01.406Z,856
2018-04-01T05:53:01.125Z,900
2018-04-01T05:54:00.841Z,928
2018-04-01T05:55:00.820Z,928
2018-04-01T05:56:01.116Z,1036
2018-04-01T05:57:01.310Z,1008
2018-04-01T05:58:01.084Z,864
2018-04-01T05:59:00.747Z,684
2018-04-01T06:00:01.265Z,580
2018-04-01T06:01:01.233Z,544
2018-04-01T06:02:01.553Z,568
2018-04-01T06:03:01.203Z,636
2018-04-01T06:04:01.449Z,700
2018-04-01T06:05:01.179Z,740
2018-04-01T06:06:00.874Z,836
2018-04-01T06:07:00.587Z,936
2018-04-01T06:08:01.229Z,1000
2018-04-01T06:09:01.351Z,1068
2018-04-01T06:10:01.266Z,1152
2018-04-01T06:11:01.041Z,1156
2018-04-01T06:12:01.294Z,1064
2018-04-01T06:13:01.006Z,908
2018-04-01T06:14:00.727Z,824
2018-04-01T06:15:01.245Z,768
2018-04-01T06:16:01.216Z,744
2018-04-01T06:17:01.211Z,812
2018-04-01T06:18:00.909Z,860
2018-04-01T06:19:00.681Z,904
2018-04-01T06:20:00.602Z,968
2018-04-01T06:21:01.115Z,1080
2018-04-01T06:22:00.567Z,1020
2018-04-01T06:23:00.546Z,920
2018-04-01T06:24:00.524Z,840
2018-04-01T06:25:00.243Z,924
2018-04-01T06:26:00.765Z,1036
2018-04-01T06:27:00.743Z,964
2018-04-01T06:28:01.142Z,904
2018-04-01T06:29:00.697Z,824
2018-04-01T06:30:00.758Z,792
2018-04-01T06:31:00.977Z,764
2018-04-01T06:32:00.642Z,736
2018-04-01T06:33:00.094Z,688
2018-04-01T06:34:00.621Z,688
2018-04-01T06:35:00.856Z,580
2018-04-01T06:36:00.609Z,576
2018-04-01T06:37:00.852Z,588
2018-04-01T06:38:00.348Z,588
2018-04-01T06:39:00.247Z,632
2018-04-01T06:40:00.699Z,752
2018-04-01T06:41:00.211Z,836
2018-04-01T06:42:00.222Z,872
2018-04-01T06:42:59.906Z,944
2018-04-01T06:44:00.141Z,1028
2018-04-01T06:45:00.421Z,1052
2018-04-01T06:46:00.730Z,1004
2018-04-01T06:47:00.098Z,1008
2018-04-01T06:48:00.336Z,1036
2018-04-01T06:49:00.055Z,1104
2018-04-01T06:50:00.570Z,1160
2018-04-01T06:51:00.277Z,1228
2018-04-01T06:52:00.280Z,1164
2018-04-01T06:53:00.240Z,984
2018-04-01T06:54:00.218Z,880
2018-04-01T06:55:00.480Z,840
2018-04-01T06:55:59.917Z,880
2018-04-01T06:57:00.170Z,864
2018-04-01T06:57:59.877Z,800
2018-04-01T06:59:00.126Z,812
2018-04-01T07:00:00.398Z,784
2018-04-01T07:01:00.356Z,724
2018-04-01T07:02:00.728Z,668
2018-04-01T07:02:59.925Z,628
2018-04-01T07:04:00.032Z,596
2018-04-01T07:04:59.487Z,588
2018-04-01T07:06:00.367Z,584
2018-04-01T07:07:00.076Z,576
2018-04-01T07:07:59.705Z,584
2018-04-01T07:09:00.381Z,620
2018-04-01T07:09:59.916Z,680
2018-04-01T07:10:59.644Z,712
2018-04-01T07:11:59.876Z,712
2018-04-01T07:12:59.856Z,708
2018-04-01T07:13:59.626Z,680
2018-04-01T07:15:00.009Z,652
2018-04-01T07:15:59.616Z,664
2018-04-01T07:16:59.546Z,740
2018-04-01T07:17:59.794Z,836
2018-04-01T07:18:59.492Z,860
2018-04-01T07:20:00.032Z,848
2018-04-01T07:20:59.650Z,856
2018-04-01T07:21:59.805Z,884
2018-04-01T07:22:59.426Z,984
2018-04-01T07:23:59.385Z,1064
2018-04-01T07:24:59.715Z,1040
2018-04-01T07:25:59.604Z,1060
2018-04-01T07:26:59.325Z,1116
2018-04-01T07:27:59.855Z,1180
2018-04-01T07:28:59.546Z,1252
2018-04-01T07:29:59.528Z,1300
2018-04-01T07:30:59.247Z,1328
2018-04-01T07:31:59.233Z,1296
2018-04-01T07:32:59.469Z,1240
2018-04-01T07:33:59.194Z,1184
2018-04-01T07:34:59.442Z,1144
2018-04-01T07:35:59.161Z,1060
2018-04-01T07:36:59.136Z,1028
2018-04-01T07:37:59.413Z,1044
2018-04-01T07:38:59.646Z,1076
2018-04-01T07:39:59.721Z,1116
2018-04-01T07:40:59.585Z,1216
2018-04-01T07:41:59.052Z,1340
2018-04-01T07:42:59.272Z,1396
2018-04-01T07:43:58.987Z,1352
2018-04-01T07:44:59.233Z,1284
2018-04-01T07:45:59.248Z,1304
2018-04-01T07:46:59.195Z,1356
2018-04-01T07:47:59.210Z,1332
2018-04-01T07:48:59.152Z,1268
2018-04-01T07:49:59.136Z,1244
2018-04-01T07:50:59.113Z,1244
2018-04-01T07:51:59.385Z,1296
2018-04-01T07:52:58.885Z,1352
2018-04-01T07:53:58.532Z,1412
2018-04-01T07:54:59.102Z,1448
2018-04-01T07:55:59.281Z,1524
2018-04-01T07:56:59.012Z,1564
2018-04-01T07:57:59.251Z,1592
2018-04-01T07:58:58.976Z,1612
2018-04-01T07:59:59.008Z,1696
2018-04-01T08:00:58.921Z,1820
2018-04-01T08:01:58.638Z,1976
2018-04-01T08:02:58.628Z,2124
2018-04-01T08:03:59.131Z,2276
2018-04-01T08:04:58.856Z,2424
2018-04-01T08:05:58.832Z,2508
2018-04-01T08:06:59.091Z,2468
2018-04-01T08:07:58.515Z,2588
2018-04-01T08:08:58.766Z,2776
2018-04-01T08:09:59.147Z,2912
2018-04-01T08:10:58.750Z,3204
2018-04-01T08:11:58.176Z,3416
2018-04-01T08:12:58.902Z,3480
2018-04-01T08:13:58.744Z,3336
2018-04-01T08:14:59.073Z,3120
2018-04-01T08:15:58.491Z,2996
2018-04-01T08:16:58.601Z,2964
2018-04-01T08:17:58.606Z,2896
2018-04-01T08:18:58.598Z,2776
2018-04-01T08:19:58.566Z,2640
2018-04-01T08:20:58.547Z,2616
2018-04-01T08:21:58.790Z,2640
2018-04-01T08:22:58.275Z,2704
2018-04-01T08:23:58.760Z,2708
2018-04-01T08:24:58.457Z,2752
2018-04-01T08:25:58.171Z,2676
2018-04-01T08:26:58.410Z,2496
2018-04-01T08:27:58.396Z,2368
2018-04-01T08:28:58.370Z,2320
2018-04-01T08:29:58.358Z,2268
2018-04-01T08:30:58.074Z,2248
2018-04-01T08:31:58.315Z,2220
2018-04-01T08:32:58.556Z,2232
2018-04-01T08:33:58.272Z,2276
2018-04-01T08:34:57.999Z,2396
2018-04-01T08:35:58.247Z,2764
2018-04-01T08:36:58.482Z,3172
2018-04-01T08:37:58.515Z,3108
2018-04-01T08:38:58.172Z,2808
2018-04-01T08:39:58.159Z,2572
2018-04-01T08:40:58.145Z,2480
2018-04-01T08:41:58.396Z,2416
2018-04-01T08:42:58.140Z,2352
2018-04-01T08:43:58.358Z,2344
2018-04-01T08:44:58.480Z,2408
2018-04-01T08:45:58.390Z,2424
2018-04-01T08:46:58.023Z,2444
2018-04-01T08:47:57.996Z,2452
2018-04-01T08:48:58.257Z,2420
2018-04-01T08:49:57.481Z,2364
2018-04-01T08:50:57.944Z,2300
2018-04-01T08:51:57.938Z,2308
2018-04-01T08:52:57.643Z,2432
2018-04-01T08:53:57.901Z,2444
2018-04-01T08:54:57.804Z,2412
2018-04-01T08:55:57.316Z,2308
2018-04-01T08:56:57.842Z,2312
2018-04-01T08:57:57.801Z,2352
2018-04-01T08:58:58.056Z,2412
2018-04-01T08:59:57.705Z,2492
2018-04-01T09:00:57.482Z,2724
2018-04-01T09:01:57.532Z,2904
2018-04-01T09:02:57.713Z,2956
2018-04-01T09:03:57.771Z,3080
2018-04-01T09:04:57.999Z,2968
2018-04-01T09:05:57.393Z,2832
2018-04-01T09:06:57.365Z,2976
2018-04-01T09:07:58.007Z,3428
2018-04-01T09:08:57.604Z,3880
2018-04-01T09:09:57.591Z,4368
2018-04-01T09:10:57.829Z,4548
2018-04-01T09:11:57.556Z,4592
2018-04-01T09:12:57.515Z,4772
2018-04-01T09:13:57.774Z,4952
2018-04-01T09:14:57.556Z,5008
2018-04-01T09:15:57.897Z,5164
2018-04-01T09:16:57.840Z,5392
2018-04-01T09:17:57.413Z,5276
2018-04-01T09:18:57.851Z,5024
2018-04-01T09:19:57.385Z,4956
2018-04-01T09:20:57.117Z,5044
2018-04-01T09:21:57.116Z,5196
2018-04-01T09:22:57.416Z,5388
2018-04-01T09:23:57.032Z,5464
2018-04-01T09:24:56.745Z,5496
2018-04-01T09:25:57.005Z,5412
2018-04-01T09:26:57.239Z,5364
2018-04-01T09:27:56.959Z,5492
2018-04-01T09:28:57.475Z,5508
2018-04-01T09:29:56.920Z,5428
2018-04-01T09:30:56.638Z,5412
2018-04-01T09:31:57.277Z,5404
2018-04-01T09:32:56.597Z,5448
2018-04-01T09:33:57.107Z,5444
2018-04-01T09:34:57.098Z,5428
2018-04-01T09:35:57.332Z,5328
2018-04-01T09:36:57.377Z,5116
2018-04-01T09:37:57.394Z,5084
2018-04-01T09:38:57.121Z,5564
2018-04-01T09:39:56.726Z,6644
2018-04-01T09:40:56.981Z,8096
2018-04-01T09:41:57.085Z,9616
2018-04-01T09:42:56.418Z,11032
2018-04-01T09:43:57.198Z,11816
2018-04-01T09:44:56.722Z,11876
2018-04-01T09:45:56.886Z,11616
2018-04-01T09:46:57.328Z,11448
2018-04-01T09:47:57.388Z,11272
2018-04-01T09:48:56.567Z,10892
2018-04-01T09:49:56.842Z,11036
2018-04-01T09:50:56.792Z,11496
2018-04-01T09:51:56.513Z,11408
2018-04-01T09:52:56.759Z,10768
2018-04-01T09:53:56.495Z,10208
2018-04-01T09:54:56.725Z,9568
2018-04-01T09:55:56.944Z,9604
2018-04-01T09:56:57.157Z,10072
2018-04-01T09:57:56.400Z,10764
2018-04-01T09:58:56.390Z,11400
2018-04-01T09:59:56.797Z,11844
2018-04-01T10:00:56.385Z,12088
2018-04-01T10:01:56.863Z,12416
2018-04-01T10:02:56.349Z,12652
2018-04-01T10:03:56.615Z,13148
2018-04-01T10:04:56.282Z,14220
2018-04-01T10:05:56.797Z,14900
2018-04-01T10:06:56.558Z,14732
2018-04-01T10:07:56.771Z,13356
2018-04-01T10:08:56.821Z,12208
2018-04-01T10:09:56.878Z,11672
2018-04-01T10:10:56.457Z,12128
2018-04-01T10:11:56.443Z,12144
2018-04-01T10:12:56.759Z,13216
2018-04-01T10:13:56.405Z,14284
2018-04-01T10:14:56.387Z,15492
2018-04-01T10:15:56.125Z,18336
2018-04-01T10:16:56.364Z,20448
2018-04-01T10:17:56.183Z,21216
2018-04-01T10:18:56.605Z,20896
2018-04-01T10:19:56.339Z,20352
2018-04-01T10:20:56.294Z,17856
2018-04-01T10:21:56.019Z,16200
2018-04-01T10:22:56.282Z,14820
2018-04-01T10:23:56.066Z,14360
2018-04-01T10:24:56.280Z,14724
2018-04-01T10:25:56.234Z,14640
2018-04-01T10:26:56.494Z,14016
2018-04-01T10:27:56.026Z,13604
2018-04-01T10:28:55.979Z,13344
2018-04-01T10:29:56.462Z,12792
2018-04-01T10:30:56.249Z,13624
2018-04-01T10:31:56.154Z,14372
2018-04-01T10:32:56.118Z,14672
2018-04-01T10:33:55.857Z,14948
2018-04-01T10:34:56.085Z,15356
2018-04-01T10:35:56.066Z,15532
2018-04-01T10:36:55.539Z,15524
2018-04-01T10:37:56.089Z,15560
2018-04-01T10:38:56.088Z,15724
2018-04-01T10:39:56.032Z,15440
2018-04-01T10:40:55.731Z,15284
2018-04-01T10:41:56.013Z,15448
2018-04-01T10:42:56.731Z,15472
2018-04-01T10:43:55.995Z,15112
2018-04-01T10:44:55.958Z,15104
2018-04-01T10:45:56.051Z,15396
2018-04-01T10:46:55.652Z,15832
2018-04-01T10:47:55.921Z,17248
2018-04-01T10:48:55.965Z,18240
2018-04-01T10:49:55.642Z,18208
2018-04-01T10:50:56.139Z,18176
2018-04-01T10:51:55.600Z,18272
2018-04-01T10:52:55.833Z,19520
2018-04-01T10:53:56.088Z,20928
2018-04-01T10:54:55.807Z,18368
2018-04-01T10:55:55.782Z,17984
2018-04-01T10:56:55.243Z,18496
2018-04-01T10:57:55.783Z,19264
2018-04-01T10:58:56.018Z,18336
2018-04-01T10:59:55.484Z,16472
2018-04-01T11:00:55.446Z,16652
2018-04-01T11:01:55.168Z,17376
2018-04-01T11:02:55.524Z,17376
2018-04-01T11:03:55.193Z,17824
2018-04-01T11:04:55.141Z,18944
2018-04-01T11:05:55.131Z,19936
2018-04-01T11:06:55.663Z,21408
2018-04-01T11:07:55.429Z,23072
2018-04-01T11:08:55.954Z,23264
2018-04-01T11:09:55.700Z,21536
2018-04-01T11:10:55.338Z,19488
2018-04-01T11:11:55.612Z,17920
2018-04-01T11:12:55.567Z,17184
2018-04-01T11:13:55.557Z,16224
2018-04-01T11:14:55.266Z,15140
2018-04-01T11:15:55.521Z,14004
2018-04-01T11:16:55.888Z,12956
2018-04-01T11:17:55.235Z,11912
2018-04-01T11:18:55.492Z,10928
2018-04-01T11:19:55.498Z,10092
2018-04-01T11:20:55.488Z,9212
2018-04-01T11:21:55.458Z,8292
2018-04-01T11:22:54.911Z,7692
2018-04-01T11:23:55.160Z,7336
2018-04-01T11:24:55.401Z,7124
2018-04-01T11:25:55.432Z,7172
2018-04-01T11:26:55.501Z,7320
2018-04-01T11:27:55.639Z,7428
2018-04-01T11:28:55.649Z,7556
2018-04-01T11:29:55.349Z,7716
2018-04-01T11:30:54.860Z,8000
2018-04-01T11:31:54.910Z,8568
2018-04-01T11:32:55.380Z,9604
2018-04-01T11:33:55.562Z,11188
2018-04-01T11:34:55.017Z,13004
2018-04-01T11:35:55.002Z,13388
2018-04-01T11:36:55.239Z,13616
2018-04-01T11:37:54.976Z,14072
2018-04-01T11:38:55.495Z,14872
2018-04-01T11:39:55.218Z,15388
2018-04-01T11:40:55.474Z,15200
2018-04-01T11:41:55.206Z,14236
2018-04-01T11:42:55.435Z,13124
2018-04-01T11:43:55.158Z,12032
2018-04-01T11:44:54.871Z,10908
2018-04-01T11:45:55.123Z,9968
2018-04-01T11:46:54.838Z,9152
2018-04-01T11:47:55.183Z,8420
2018-04-01T11:48:55.340Z,7868
2018-04-01T11:49:55.104Z,7012
2018-04-01T11:50:54.833Z,6064
2018-04-01T11:51:55.073Z,5256
2018-04-01T11:52:55.027Z,4676
2018-04-01T11:53:54.789Z,4304
2018-04-01T11:54:55.005Z,4160
2018-04-01T11:55:55.150Z,4236
2018-04-01T11:56:54.803Z,4468
2018-04-01T11:57:54.690Z,4620
2018-04-01T11:58:55.040Z,4728
2018-04-01T11:59:55.023Z,4912
2018-04-01T12:00:54.835Z,4912
2018-04-01T12:01:54.907Z,4892
2018-04-01T12:02:54.711Z,4736
2018-04-01T12:03:54.338Z,4372
2018-04-01T12:04:54.581Z,4064
2018-04-01T12:05:54.572Z,3800
2018-04-01T12:06:54.567Z,3704
2018-04-01T12:07:54.559Z,3800
2018-04-01T12:08:55.203Z,3904
2018-04-01T12:09:54.535Z,4084
2018-04-01T12:10:54.436Z,4224
2018-04-01T12:11:54.477Z,4324
2018-04-01T12:12:54.793Z,4468
2018-04-01T12:13:54.731Z,4412
2018-04-01T12:14:54.845Z,4256
2018-04-01T12:15:54.413Z,4184
2018-04-01T12:16:54.992Z,4224
2018-04-01T12:17:54.678Z,4308
2018-04-01T12:18:54.367Z,4272
2018-04-01T12:19:54.626Z,4264
2018-04-01T12:20:54.630Z,4292
2018-04-01T12:21:54.592Z,4288
2018-04-01T12:22:54.304Z,4432
2018-04-01T12:23:54.556Z,4592
2018-04-01T12:24:54.009Z,4680
2018-04-01T12:25:53.993Z,4732
2018-04-01T12:26:54.633Z,4704
2018-04-01T12:27:54.234Z,4748
2018-04-01T12:28:54.488Z,4788
2018-04-01T12:29:54.734Z,4664
2018-04-01T12:30:54.448Z,4544
2018-04-01T12:31:54.505Z,4460
2018-04-01T12:32:54.438Z,4400
2018-04-01T12:33:54.138Z,4400
2018-04-01T12:34:54.114Z,4408
2018-04-01T12:35:54.627Z,4480
2018-04-01T12:36:54.410Z,4624
2018-04-01T12:37:54.338Z,4760
2018-04-01T12:38:54.424Z,4784
2018-04-01T12:39:54.031Z,4680
2018-04-01T12:40:54.429Z,4476
2018-04-01T12:41:54.276Z,4296
2018-04-01T12:42:54.000Z,4176
2018-04-01T12:43:54.244Z,4068
2018-04-01T12:44:54.222Z,3936
2018-04-01T12:45:54.283Z,3832
2018-04-01T12:46:54.185Z,3796
2018-04-01T12:47:53.641Z,3796
2018-04-01T12:48:54.148Z,3796
2018-04-01T12:49:54.214Z,3796
2018-04-01T12:50:53.863Z,3848
2018-04-01T12:51:54.537Z,4024
2018-04-01T12:52:54.091Z,4264
2018-04-01T12:53:54.076Z,4440
2018-04-01T12:54:53.616Z,4528
2018-04-01T12:55:54.305Z,4620
2018-04-01T12:56:54.025Z,4640
2018-04-01T12:57:54.056Z,4664
2018-04-01T12:58:53.990Z,4828
2018-04-01T12:59:54.064Z,4924
2018-04-01T13:00:54.220Z,4684
2018-04-01T13:01:54.463Z,4236
2018-04-01T13:02:54.049Z,3880
2018-04-01T13:03:53.942Z,3512
2018-04-01T13:04:53.665Z,3248
2018-04-01T13:05:53.610Z,3112
2018-04-01T13:06:53.855Z,3040
2018-04-01T13:07:54.040Z,3012
2018-04-01T13:08:54.133Z,2988
2018-04-01T13:09:54.083Z,3020
2018-04-01T13:10:53.266Z,3116
2018-04-01T13:11:53.789Z,3220
2018-04-01T13:12:53.498Z,3300
2018-04-01T13:13:53.822Z,3404
2018-04-01T13:14:53.492Z,3472
2018-04-01T13:15:53.450Z,3492
2018-04-01T13:16:54.013Z,3612
2018-04-01T13:17:54.022Z,3760
2018-04-01T13:18:53.490Z,3876
2018-04-01T13:19:53.946Z,3860
2018-04-01T13:20:53.899Z,3640
2018-04-01T13:21:53.603Z,3476
2018-04-01T13:22:53.324Z,3488
2018-04-01T13:23:53.310Z,3516
2018-04-01T13:24:53.572Z,3520
2018-04-01T13:25:53.567Z,3620
2018-04-01T13:26:53.526Z,3712
2018-04-01T13:27:53.527Z,3544
2018-04-01T13:28:53.775Z,3192
2018-04-01T13:29:53.867Z,2940
2018-04-01T13:30:53.189Z,2804
2018-04-01T13:31:53.710Z,2828
2018-04-01T13:32:53.718Z,2984
2018-04-01T13:33:53.142Z,3172
2018-04-01T13:34:53.347Z,3308
2018-04-01T13:35:53.417Z,3296
2018-04-01T13:36:53.364Z,3220
2018-04-01T13:37:53.071Z,3100
2018-04-01T13:38:53.095Z,2880
2018-04-01T13:39:53.105Z,2688
2018-04-01T13:40:53.341Z,2548
2018-04-01T13:41:53.351Z,2432
2018-04-01T13:42:53.098Z,2368
2018-04-01T13:43:53.576Z,2388
2018-04-01T13:44:53.338Z,2416
2018-04-01T13:45:53.320Z,2452
2018-04-01T13:46:53.229Z,2492
2018-04-01T13:47:53.450Z,2512